sensor_id;sensor_type;location;lat;lon;timestamp;P1;durP1;ratioP1;P2;durP2;ratioP2
24206;SDS011;12351;52.284;9.160;2023-07-02T00:00:22;4.95;;;2.80;;
24206;SDS011;12351;52.284;9.160;2023-07-02T00:03:08;5.12;;;2.70;;
24206;SDS011;12351;52.284;9.160;2023-07-02T00:05:55;5.20;;;2.60;;
24206;SDS011;12351;52.284;9.160;2023-07-02T00:08:43;5.83;;;2.90;;
24206;SDS011;12351;52.284;9.160;2023-07-02T00:11:30;5.10;;;3.22;;
24206;SDS011;12351;52.284;9.160;2023-07-02T00:14:17;3.90;;;2.85;;
24206;SDS011;12351;52.284;9.160;2023-07-02T00:17:04;6.65;;;3.02;;
24206;SDS011;12351;52.284;9.160;2023-07-02T00:19:51;3.87;;;2.92;;
24206;SDS011;12351;52.284;9.160;2023-07-02T00:22:38;6.35;;;3.00;;
24206;SDS011;12351;52.284;9.160;2023-07-02T00:25:27;6.25;;;3.17;;
24206;SDS011;12351;52.284;9.160;2023-07-02T00:28:14;3.52;;;3.05;;
24206;SDS011;12351;52.284;9.160;2023-07-02T00:31:02;6.45;;;2.95;;
24206;SDS011;12351;52.284;9.160;2023-07-02T00:33:49;8.03;;;3.58;;
24206;SDS011;12351;52.284;9.160;2023-07-02T00:36:37;3.80;;;2.85;;
24206;SDS011;12351;52.284;9.160;2023-07-02T00:39:24;7.85;;;3.10;;
24206;SDS011;12351;52.284;9.160;2023-07-02T00:42:11;6.20;;;2.80;;
24206;SDS011;12351;52.284;9.160;2023-07-02T00:45:00;4.00;;;2.52;;
24206;SDS011;12351;52.284;9.160;2023-07-02T00:47:47;6.10;;;2.60;;
24206;SDS011;12351;52.284;9.160;2023-07-02T00:50:35;4.78;;;2.85;;
24206;SDS011;12351;52.284;9.160;2023-07-02T00:53:22;4.50;;;2.62;;
24206;SDS011;12351;52.284;9.160;2023-07-02T00:56:09;5.72;;;2.60;;
24206;SDS011;12351;52.284;9.160;2023-07-02T00:58:57;6.05;;;3.00;;
24206;SDS011;12351;52.284;9.160;2023-07-02T01:01:45;3.87;;;2.60;;
24206;SDS011;12351;52.284;9.160;2023-07-02T01:04:34;6.15;;;2.60;;
24206;SDS011;12351;52.284;9.160;2023-07-02T01:07:22;7.05;;;3.42;;
24206;SDS011;12351;52.284;9.160;2023-07-02T01:10:09;5.62;;;3.30;;
24206;SDS011;12351;52.284;9.160;2023-07-02T01:12:57;5.53;;;2.80;;
24206;SDS011;12351;52.284;9.160;2023-07-02T01:15:46;6.15;;;3.42;;
24206;SDS011;12351;52.284;9.160;2023-07-02T01:18:34;4.60;;;3.10;;
24206;SDS011;12351;52.284;9.160;2023-07-02T01:21:23;5.90;;;3.40;;
24206;SDS011;12351;52.284;9.160;2023-07-02T01:24:11;5.58;;;3.75;;
24206;SDS011;12351;52.284;9.160;2023-07-02T01:26:59;6.35;;;3.77;;
24206;SDS011;12351;52.284;9.160;2023-07-02T01:29:47;8.55;;;4.37;;
24206;SDS011;12351;52.284;9.160;2023-07-02T01:32:37;8.80;;;4.17;;
24206;SDS011;12351;52.284;9.160;2023-07-02T01:35:24;5.97;;;4.30;;
24206;SDS011;12351;52.284;9.160;2023-07-02T01:38:11;7.45;;;4.87;;
24206;SDS011;12351;52.284;9.160;2023-07-02T01:40:59;6.75;;;4.45;;
24206;SDS011;12351;52.284;9.160;2023-07-02T01:43:46;8.58;;;4.80;;
24206;SDS011;12351;52.284;9.160;2023-07-02T01:46:33;8.58;;;5.20;;
24206;SDS011;12351;52.284;9.160;2023-07-02T01:49:20;7.20;;;4.95;;
24206;SDS011;12351;52.284;9.160;2023-07-02T01:52:07;6.22;;;4.78;;
24206;SDS011;12351;52.284;9.160;2023-07-02T01:54:54;5.83;;;5.10;;
24206;SDS011;12351;52.284;9.160;2023-07-02T01:57:41;8.65;;;5.45;;
24206;SDS011;12351;52.284;9.160;2023-07-02T02:00:28;9.45;;;5.40;;
24206;SDS011;12351;52.284;9.160;2023-07-02T02:03:15;6.83;;;5.20;;
24206;SDS011;12351;52.284;9.160;2023-07-02T02:06:02;8.08;;;5.30;;
24206;SDS011;12351;52.284;9.160;2023-07-02T02:08:49;5.87;;;5.10;;
24206;SDS011;12351;52.284;9.160;2023-07-02T02:11:38;5.75;;;5.15;;
24206;SDS011;12351;52.284;9.160;2023-07-02T02:14:27;5.65;;;5.12;;
24206;SDS011;12351;52.284;9.160;2023-07-02T02:20:09;6.25;;;4.97;;
24206;SDS011;12351;52.284;9.160;2023-07-02T02:25:51;5.40;;;4.90;;
24206;SDS011;12351;52.284;9.160;2023-07-02T02:28:42;8.55;;;4.75;;
24206;SDS011;12351;52.284;9.160;2023-07-02T02:31:29;7.25;;;4.62;;
24206;SDS011;12351;52.284;9.160;2023-07-02T02:34:16;5.42;;;4.87;;
24206;SDS011;12351;52.284;9.160;2023-07-02T02:37:02;8.28;;;5.15;;
24206;SDS011;12351;52.284;9.160;2023-07-02T02:39:50;6.87;;;5.15;;
24206;SDS011;12351;52.284;9.160;2023-07-02T02:42:38;6.50;;;4.90;;
24206;SDS011;12351;52.284;9.160;2023-07-02T02:45:25;5.67;;;5.08;;
24206;SDS011;12351;52.284;9.160;2023-07-02T02:48:12;8.40;;;5.40;;
24206;SDS011;12351;52.284;9.160;2023-07-02T02:50:59;6.35;;;5.22;;
24206;SDS011;12351;52.284;9.160;2023-07-02T02:53:47;7.05;;;5.35;;
24206;SDS011;12351;52.284;9.160;2023-07-02T02:56:34;8.55;;;5.28;;
24206;SDS011;12351;52.284;9.160;2023-07-02T02:59:21;6.25;;;5.25;;
24206;SDS011;12351;52.284;9.160;2023-07-02T03:02:08;9.78;;;5.55;;
24206;SDS011;12351;52.284;9.160;2023-07-02T03:04:55;6.85;;;5.35;;
24206;SDS011;12351;52.284;9.160;2023-07-02T03:07:43;8.78;;;5.30;;
24206;SDS011;12351;52.284;9.160;2023-07-02T03:10:30;7.72;;;5.58;;
24206;SDS011;12351;52.284;9.160;2023-07-02T03:13:17;6.35;;;5.72;;
24206;SDS011;12351;52.284;9.160;2023-07-02T03:16:05;7.25;;;6.05;;
24206;SDS011;12351;52.284;9.160;2023-07-02T03:18:52;9.45;;;6.60;;
24206;SDS011;12351;52.284;9.160;2023-07-02T03:21:39;9.25;;;7.10;;
24206;SDS011;12351;52.284;9.160;2023-07-02T03:24:27;7.70;;;6.90;;
24206;SDS011;12351;52.284;9.160;2023-07-02T03:27:14;8.28;;;6.80;;
24206;SDS011;12351;52.284;9.160;2023-07-02T03:30:01;9.23;;;7.83;;
24206;SDS011;12351;52.284;9.160;2023-07-02T03:32:48;11.12;;;8.20;;
24206;SDS011;12351;52.284;9.160;2023-07-02T03:35:35;10.58;;;8.43;;
24206;SDS011;12351;52.284;9.160;2023-07-02T03:38:22;10.38;;;9.08;;
24206;SDS011;12351;52.284;9.160;2023-07-02T03:41:09;12.75;;;8.43;;
24206;SDS011;12351;52.284;9.160;2023-07-02T03:43:56;9.23;;;6.08;;
24206;SDS011;12351;52.284;9.160;2023-07-02T03:46:44;10.48;;;5.28;;
24206;SDS011;12351;52.284;9.160;2023-07-02T03:49:31;10.55;;;5.08;;
24206;SDS011;12351;52.284;9.160;2023-07-02T03:52:18;10.13;;;5.30;;
24206;SDS011;12351;52.284;9.160;2023-07-02T03:55:05;11.60;;;5.47;;
24206;SDS011;12351;52.284;9.160;2023-07-02T03:57:52;10.95;;;4.80;;
24206;SDS011;12351;52.284;9.160;2023-07-02T04:00:39;9.55;;;4.40;;
24206;SDS011;12351;52.284;9.160;2023-07-02T04:03:27;11.25;;;5.25;;
24206;SDS011;12351;52.284;9.160;2023-07-02T04:06:14;13.22;;;4.90;;
24206;SDS011;12351;52.284;9.160;2023-07-02T04:09:02;10.53;;;4.78;;
24206;SDS011;12351;52.284;9.160;2023-07-02T04:11:49;10.72;;;5.20;;
24206;SDS011;12351;52.284;9.160;2023-07-02T04:14:36;15.32;;;5.47;;
24206;SDS011;12351;52.284;9.160;2023-07-02T04:17:23;9.55;;;5.12;;
24206;SDS011;12351;52.284;9.160;2023-07-02T04:20:11;9.75;;;5.20;;
24206;SDS011;12351;52.284;9.160;2023-07-02T04:22:58;11.03;;;5.10;;
24206;SDS011;12351;52.284;9.160;2023-07-02T04:25:45;11.78;;;5.37;;
24206;SDS011;12351;52.284;9.160;2023-07-02T04:28:33;9.55;;;5.05;;
24206;SDS011;12351;52.284;9.160;2023-07-02T04:31:20;9.08;;;4.80;;
24206;SDS011;12351;52.284;9.160;2023-07-02T04:34:08;10.00;;;4.72;;
24206;SDS011;12351;52.284;9.160;2023-07-02T04:36:55;10.93;;;5.12;;
24206;SDS011;12351;52.284;9.160;2023-07-02T04:39:42;10.82;;;5.28;;
24206;SDS011;12351;52.284;9.160;2023-07-02T04:42:29;10.78;;;4.90;;
24206;SDS011;12351;52.284;9.160;2023-07-02T04:45:18;10.05;;;4.50;;
24206;SDS011;12351;52.284;9.160;2023-07-02T04:48:05;14.03;;;4.87;;
24206;SDS011;12351;52.284;9.160;2023-07-02T04:50:53;12.65;;;4.72;;
24206;SDS011;12351;52.284;9.160;2023-07-02T04:53:40;8.13;;;4.45;;
24206;SDS011;12351;52.284;9.160;2023-07-02T04:56:27;10.58;;;5.15;;
24206;SDS011;12351;52.284;9.160;2023-07-02T04:59:14;13.28;;;5.05;;
24206;SDS011;12351;52.284;9.160;2023-07-02T05:02:02;11.03;;;4.72;;
24206;SDS011;12351;52.284;9.160;2023-07-02T05:04:49;9.68;;;4.50;;
24206;SDS011;12351;52.284;9.160;2023-07-02T05:07:35;7.75;;;4.33;;
24206;SDS011;12351;52.284;9.160;2023-07-02T05:10:22;11.60;;;5.00;;
24206;SDS011;12351;52.284;9.160;2023-07-02T05:13:09;9.03;;;4.53;;
24206;SDS011;12351;52.284;9.160;2023-07-02T05:15:56;11.43;;;5.30;;
24206;SDS011;12351;52.284;9.160;2023-07-02T05:18:44;9.08;;;4.80;;
24206;SDS011;12351;52.284;9.160;2023-07-02T05:21:30;10.38;;;4.72;;
24206;SDS011;12351;52.284;9.160;2023-07-02T05:27:06;11.60;;;4.92;;
24206;SDS011;12351;52.284;9.160;2023-07-02T05:29:53;9.10;;;4.87;;
24206;SDS011;12351;52.284;9.160;2023-07-02T05:32:40;10.60;;;4.67;;
24206;SDS011;12351;52.284;9.160;2023-07-02T05:35:28;8.05;;;4.45;;
24206;SDS011;12351;52.284;9.160;2023-07-02T05:38:17;12.00;;;4.60;;
24206;SDS011;12351;52.284;9.160;2023-07-02T05:41:04;10.53;;;4.92;;
24206;SDS011;12351;52.284;9.160;2023-07-02T05:43:51;10.80;;;4.85;;
24206;SDS011;12351;52.284;9.160;2023-07-02T05:46:38;10.88;;;5.08;;
24206;SDS011;12351;52.284;9.160;2023-07-02T05:49:26;8.65;;;4.87;;
24206;SDS011;12351;52.284;9.160;2023-07-02T05:52:13;8.73;;;5.40;;
24206;SDS011;12351;52.284;9.160;2023-07-02T05:55:00;12.90;;;4.83;;
24206;SDS011;12351;52.284;9.160;2023-07-02T05:57:47;12.50;;;4.90;;
24206;SDS011;12351;52.284;9.160;2023-07-02T06:00:34;11.33;;;5.12;;
24206;SDS011;12351;52.284;9.160;2023-07-02T06:03:21;16.37;;;5.00;;
24206;SDS011;12351;52.284;9.160;2023-07-02T06:06:08;9.95;;;4.60;;
24206;SDS011;12351;52.284;9.160;2023-07-02T06:08:56;10.15;;;3.98;;
24206;SDS011;12351;52.284;9.160;2023-07-02T06:11:43;10.63;;;4.37;;
24206;SDS011;12351;52.284;9.160;2023-07-02T06:14:30;11.70;;;4.72;;
24206;SDS011;12351;52.284;9.160;2023-07-02T06:17:17;12.73;;;4.97;;
24206;SDS011;12351;52.284;9.160;2023-07-02T06:20:06;9.75;;;4.72;;
24206;SDS011;12351;52.284;9.160;2023-07-02T06:22:53;9.95;;;5.17;;
24206;SDS011;12351;52.284;9.160;2023-07-02T06:25:41;14.60;;;5.47;;
24206;SDS011;12351;52.284;9.160;2023-07-02T06:28:28;13.75;;;4.85;;
24206;SDS011;12351;52.284;9.160;2023-07-02T06:31:15;10.00;;;4.85;;
24206;SDS011;12351;52.284;9.160;2023-07-02T06:34:02;11.15;;;5.03;;
24206;SDS011;12351;52.284;9.160;2023-07-02T06:36:51;11.10;;;4.85;;
24206;SDS011;12351;52.284;9.160;2023-07-02T06:39:37;12.40;;;4.75;;
24206;SDS011;12351;52.284;9.160;2023-07-02T06:42:25;10.15;;;4.85;;
24206;SDS011;12351;52.284;9.160;2023-07-02T06:45:11;10.82;;;4.97;;
24206;SDS011;12351;52.284;9.160;2023-07-02T06:47:59;14.98;;;4.85;;
24206;SDS011;12351;52.284;9.160;2023-07-02T06:50:46;18.12;;;4.92;;
24206;SDS011;12351;52.284;9.160;2023-07-02T06:53:33;11.45;;;5.10;;
24206;SDS011;12351;52.284;9.160;2023-07-02T06:56:22;13.30;;;5.67;;
24206;SDS011;12351;52.284;9.160;2023-07-02T06:59:09;15.63;;;5.55;;
24206;SDS011;12351;52.284;9.160;2023-07-02T07:01:57;15.55;;;5.78;;
24206;SDS011;12351;52.284;9.160;2023-07-02T07:04:43;16.12;;;5.40;;
24206;SDS011;12351;52.284;9.160;2023-07-02T07:07:31;10.98;;;5.28;;
24206;SDS011;12351;52.284;9.160;2023-07-02T07:10:18;12.90;;;5.60;;
24206;SDS011;12351;52.284;9.160;2023-07-02T07:13:05;14.80;;;5.60;;
24206;SDS011;12351;52.284;9.160;2023-07-02T07:15:53;13.10;;;5.67;;
24206;SDS011;12351;52.284;9.160;2023-07-02T07:18:40;13.55;;;5.35;;
24206;SDS011;12351;52.284;9.160;2023-07-02T07:21:29;12.20;;;5.42;;
24206;SDS011;12351;52.284;9.160;2023-07-02T07:24:15;15.72;;;5.60;;
24206;SDS011;12351;52.284;9.160;2023-07-02T07:27:02;12.55;;;5.30;;
24206;SDS011;12351;52.284;9.160;2023-07-02T07:29:50;13.70;;;5.08;;
24206;SDS011;12351;52.284;9.160;2023-07-02T07:32:37;14.83;;;5.47;;
24206;SDS011;12351;52.284;9.160;2023-07-02T07:35:24;16.42;;;5.72;;
24206;SDS011;12351;52.284;9.160;2023-07-02T07:38:12;14.63;;;5.60;;
24206;SDS011;12351;52.284;9.160;2023-07-02T07:41:00;11.45;;;5.22;;
24206;SDS011;12351;52.284;9.160;2023-07-02T07:43:47;12.85;;;5.35;;
24206;SDS011;12351;52.284;9.160;2023-07-02T07:46:35;14.00;;;5.62;;
24206;SDS011;12351;52.284;9.160;2023-07-02T07:49:22;14.43;;;5.33;;
24206;SDS011;12351;52.284;9.160;2023-07-02T07:52:09;14.70;;;6.00;;
24206;SDS011;12351;52.284;9.160;2023-07-02T07:54:56;13.68;;;5.72;;
24206;SDS011;12351;52.284;9.160;2023-07-02T07:57:43;11.68;;;5.50;;
24206;SDS011;12351;52.284;9.160;2023-07-02T08:00:30;14.55;;;5.72;;
24206;SDS011;12351;52.284;9.160;2023-07-02T08:03:17;13.68;;;5.25;;
24206;SDS011;12351;52.284;9.160;2023-07-02T08:06:04;14.73;;;5.78;;
24206;SDS011;12351;52.284;9.160;2023-07-02T08:08:51;14.28;;;5.40;;
24206;SDS011;12351;52.284;9.160;2023-07-02T08:11:39;11.00;;;5.30;;
24206;SDS011;12351;52.284;9.160;2023-07-02T08:14:26;10.88;;;5.40;;
24206;SDS011;12351;52.284;9.160;2023-07-02T08:17:12;13.75;;;5.33;;
24206;SDS011;12351;52.284;9.160;2023-07-02T08:19:59;10.72;;;5.25;;
24206;SDS011;12351;52.284;9.160;2023-07-02T08:22:46;12.80;;;5.90;;
24206;SDS011;12351;52.284;9.160;2023-07-02T08:25:33;14.28;;;5.42;;
24206;SDS011;12351;52.284;9.160;2023-07-02T08:28:20;14.18;;;6.00;;
24206;SDS011;12351;52.284;9.160;2023-07-02T08:31:08;17.45;;;6.00;;
24206;SDS011;12351;52.284;9.160;2023-07-02T08:33:55;12.25;;;5.78;;
24206;SDS011;12351;52.284;9.160;2023-07-02T08:36:42;11.70;;;5.65;;
24206;SDS011;12351;52.284;9.160;2023-07-02T08:39:29;13.15;;;5.58;;
24206;SDS011;12351;52.284;9.160;2023-07-02T08:42:16;12.45;;;5.78;;
24206;SDS011;12351;52.284;9.160;2023-07-02T08:45:03;16.45;;;5.72;;
24206;SDS011;12351;52.284;9.160;2023-07-02T08:47:51;16.35;;;5.83;;
24206;SDS011;12351;52.284;9.160;2023-07-02T08:50:41;12.33;;;5.47;;
24206;SDS011;12351;52.284;9.160;2023-07-02T08:53:29;14.73;;;6.12;;
24206;SDS011;12351;52.284;9.160;2023-07-02T08:56:17;14.80;;;5.70;;
24206;SDS011;12351;52.284;9.160;2023-07-02T08:59:06;12.60;;;5.70;;
24206;SDS011;12351;52.284;9.160;2023-07-02T09:01:53;11.60;;;5.70;;
24206;SDS011;12351;52.284;9.160;2023-07-02T09:04:40;12.95;;;6.08;;
24206;SDS011;12351;52.284;9.160;2023-07-02T09:07:27;11.30;;;5.75;;
24206;SDS011;12351;52.284;9.160;2023-07-02T09:13:06;11.12;;;5.53;;
24206;SDS011;12351;52.284;9.160;2023-07-02T09:15:54;11.38;;;5.10;;
24206;SDS011;12351;52.284;9.160;2023-07-02T09:18:41;13.35;;;5.60;;
24206;SDS011;12351;52.284;9.160;2023-07-02T09:21:37;13.03;;;5.97;;
24206;SDS011;12351;52.284;9.160;2023-07-02T09:24:19;9.90;;;4.92;;
24206;SDS011;12351;52.284;9.160;2023-07-02T09:27:08;9.68;;;4.50;;
24206;SDS011;12351;52.284;9.160;2023-07-02T09:29:55;12.20;;;5.05;;
24206;SDS011;12351;52.284;9.160;2023-07-02T09:32:43;13.28;;;5.00;;
24206;SDS011;12351;52.284;9.160;2023-07-02T09:35:30;8.70;;;4.40;;
24206;SDS011;12351;52.284;9.160;2023-07-02T09:38:18;11.53;;;5.28;;
24206;SDS011;12351;52.284;9.160;2023-07-02T09:41:06;14.55;;;4.67;;
24206;SDS011;12351;52.284;9.160;2023-07-02T09:43:53;10.03;;;4.40;;
24206;SDS011;12351;52.284;9.160;2023-07-02T09:46:41;8.33;;;4.95;;
24206;SDS011;12351;52.284;9.160;2023-07-02T09:49:33;12.55;;;4.65;;
24206;SDS011;12351;52.284;9.160;2023-07-02T09:52:20;11.00;;;4.80;;
24206;SDS011;12351;52.284;9.160;2023-07-02T09:55:08;10.25;;;5.25;;
24206;SDS011;12351;52.284;9.160;2023-07-02T09:57:55;10.53;;;4.65;;
24206;SDS011;12351;52.284;9.160;2023-07-02T10:00:43;11.90;;;4.70;;
24206;SDS011;12351;52.284;9.160;2023-07-02T10:03:31;10.60;;;4.58;;
24206;SDS011;12351;52.284;9.160;2023-07-02T10:09:08;10.85;;;5.12;;
24206;SDS011;12351;52.284;9.160;2023-07-02T10:11:55;10.90;;;4.72;;
24206;SDS011;12351;52.284;9.160;2023-07-02T10:14:42;11.85;;;4.58;;
24206;SDS011;12351;52.284;9.160;2023-07-02T10:17:31;13.80;;;4.55;;
24206;SDS011;12351;52.284;9.160;2023-07-02T10:20:30;10.63;;;4.55;;
24206;SDS011;12351;52.284;9.160;2023-07-02T10:23:09;13.53;;;5.15;;
24206;SDS011;12351;52.284;9.160;2023-07-02T10:25:56;13.15;;;5.10;;
24206;SDS011;12351;52.284;9.160;2023-07-02T10:31:33;10.38;;;4.35;;
24206;SDS011;12351;52.284;9.160;2023-07-02T10:37:12;12.47;;;4.85;;
24206;SDS011;12351;52.284;9.160;2023-07-02T10:39:59;8.15;;;4.37;;
24206;SDS011;12351;52.284;9.160;2023-07-02T10:42:50;9.25;;;4.50;;
24206;SDS011;12351;52.284;9.160;2023-07-02T10:45:38;9.53;;;4.75;;
24206;SDS011;12351;52.284;9.160;2023-07-02T10:48:26;9.20;;;4.83;;
24206;SDS011;12351;52.284;9.160;2023-07-02T10:51:13;9.73;;;4.65;;
24206;SDS011;12351;52.284;9.160;2023-07-02T10:54:00;10.82;;;4.97;;
24206;SDS011;12351;52.284;9.160;2023-07-02T10:56:50;8.73;;;4.33;;
24206;SDS011;12351;52.284;9.160;2023-07-02T10:59:38;9.48;;;4.58;;
24206;SDS011;12351;52.284;9.160;2023-07-02T11:02:25;12.63;;;4.67;;
24206;SDS011;12351;52.284;9.160;2023-07-02T11:05:15;9.75;;;4.50;;
24206;SDS011;12351;52.284;9.160;2023-07-02T11:13:44;9.33;;;4.53;;
24206;SDS011;12351;52.284;9.160;2023-07-02T11:16:33;10.48;;;4.83;;
24206;SDS011;12351;52.284;9.160;2023-07-02T11:19:20;11.45;;;4.53;;
24206;SDS011;12351;52.284;9.160;2023-07-02T11:22:07;11.48;;;4.87;;
24206;SDS011;12351;52.284;9.160;2023-07-02T11:24:54;13.25;;;4.58;;
24206;SDS011;12351;52.284;9.160;2023-07-02T11:27:41;11.83;;;4.78;;
24206;SDS011;12351;52.284;9.160;2023-07-02T11:30:29;10.15;;;4.87;;
24206;SDS011;12351;52.284;9.160;2023-07-02T11:33:16;10.95;;;4.72;;
24206;SDS011;12351;52.284;9.160;2023-07-02T11:36:04;9.93;;;4.53;;
24206;SDS011;12351;52.284;9.160;2023-07-02T11:38:54;12.47;;;4.60;;
24206;SDS011;12351;52.284;9.160;2023-07-02T11:41:43;8.03;;;4.50;;
24206;SDS011;12351;52.284;9.160;2023-07-02T11:44:31;9.43;;;4.30;;
24206;SDS011;12351;52.284;9.160;2023-07-02T11:47:18;11.03;;;4.70;;
24206;SDS011;12351;52.284;9.160;2023-07-02T11:50:06;14.15;;;4.95;;
24206;SDS011;12351;52.284;9.160;2023-07-02T11:52:53;8.28;;;4.80;;
24206;SDS011;12351;52.284;9.160;2023-07-02T11:55:40;9.58;;;4.65;;
24206;SDS011;12351;52.284;9.160;2023-07-02T11:58:28;11.15;;;4.67;;
24206;SDS011;12351;52.284;9.160;2023-07-02T12:01:15;12.82;;;4.25;;
24206;SDS011;12351;52.284;9.160;2023-07-02T12:04:02;9.15;;;4.45;;
24206;SDS011;12351;52.284;9.160;2023-07-02T12:06:50;9.10;;;4.12;;
24206;SDS011;12351;52.284;9.160;2023-07-02T12:09:37;8.98;;;4.15;;
24206;SDS011;12351;52.284;9.160;2023-07-02T12:12:25;8.90;;;4.45;;
24206;SDS011;12351;52.284;9.160;2023-07-02T12:15:12;10.00;;;4.83;;
24206;SDS011;12351;52.284;9.160;2023-07-02T12:17:59;9.43;;;4.10;;
24206;SDS011;12351;52.284;9.160;2023-07-02T12:20:47;8.63;;;4.28;;
24206;SDS011;12351;52.284;9.160;2023-07-02T12:23:34;10.32;;;4.37;;
24206;SDS011;12351;52.284;9.160;2023-07-02T12:26:21;10.05;;;4.50;;
24206;SDS011;12351;52.284;9.160;2023-07-02T12:29:08;11.75;;;5.33;;
24206;SDS011;12351;52.284;9.160;2023-07-02T12:31:55;9.05;;;4.28;;
24206;SDS011;12351;52.284;9.160;2023-07-02T12:34:42;8.73;;;4.17;;
24206;SDS011;12351;52.284;9.160;2023-07-02T12:37:31;11.85;;;5.00;;
24206;SDS011;12351;52.284;9.160;2023-07-02T12:40:21;8.53;;;4.22;;
24206;SDS011;12351;52.284;9.160;2023-07-02T12:43:06;11.53;;;4.62;;
24206;SDS011;12351;52.284;9.160;2023-07-02T12:45:53;10.58;;;4.80;;
24206;SDS011;12351;52.284;9.160;2023-07-02T12:48:41;7.17;;;4.53;;
24206;SDS011;12351;52.284;9.160;2023-07-02T12:51:28;8.75;;;4.12;;
24206;SDS011;12351;52.284;9.160;2023-07-02T12:54:15;9.08;;;4.72;;
24206;SDS011;12351;52.284;9.160;2023-07-02T12:57:02;9.18;;;4.45;;
24206;SDS011;12351;52.284;9.160;2023-07-02T12:59:49;8.63;;;4.33;;
24206;SDS011;12351;52.284;9.160;2023-07-02T13:02:36;9.28;;;4.50;;
24206;SDS011;12351;52.284;9.160;2023-07-02T13:05:23;12.07;;;3.95;;
24206;SDS011;12351;52.284;9.160;2023-07-02T13:08:10;10.15;;;3.98;;
24206;SDS011;12351;52.284;9.160;2023-07-02T13:10:57;12.70;;;4.50;;
24206;SDS011;12351;52.284;9.160;2023-07-02T13:13:44;8.65;;;4.47;;
24206;SDS011;12351;52.284;9.160;2023-07-02T13:16:32;7.83;;;3.85;;
24206;SDS011;12351;52.284;9.160;2023-07-02T13:19:19;9.08;;;3.83;;
24206;SDS011;12351;52.284;9.160;2023-07-02T13:22:06;6.87;;;3.73;;
24206;SDS011;12351;52.284;9.160;2023-07-02T13:24:53;10.55;;;3.98;;
24206;SDS011;12351;52.284;9.160;2023-07-02T13:27:40;10.95;;;4.10;;
24206;SDS011;12351;52.284;9.160;2023-07-02T13:30:27;8.13;;;4.03;;
24206;SDS011;12351;52.284;9.160;2023-07-02T13:33:15;8.63;;;3.93;;
24206;SDS011;12351;52.284;9.160;2023-07-02T13:36:03;9.17;;;4.20;;
24206;SDS011;12351;52.284;9.160;2023-07-02T13:38:50;8.43;;;3.87;;
24206;SDS011;12351;52.284;9.160;2023-07-02T13:41:37;9.20;;;3.47;;
24206;SDS011;12351;52.284;9.160;2023-07-02T13:44:24;11.88;;;4.22;;
24206;SDS011;12351;52.284;9.160;2023-07-02T13:47:11;8.50;;;4.00;;
24206;SDS011;12351;52.284;9.160;2023-07-02T13:49:57;9.03;;;4.10;;
24206;SDS011;12351;52.284;9.160;2023-07-02T13:52:44;7.80;;;3.93;;
24206;SDS011;12351;52.284;9.160;2023-07-02T13:55:31;7.73;;;3.97;;
24206;SDS011;12351;52.284;9.160;2023-07-02T13:58:18;7.87;;;3.93;;
24206;SDS011;12351;52.284;9.160;2023-07-02T14:01:05;8.37;;;3.80;;
24206;SDS011;12351;52.284;9.160;2023-07-02T14:03:52;7.07;;;3.83;;
24206;SDS011;12351;52.284;9.160;2023-07-02T14:06:39;6.80;;;3.97;;
24206;SDS011;12351;52.284;9.160;2023-07-02T14:09:26;8.13;;;3.60;;
24206;SDS011;12351;52.284;9.160;2023-07-02T14:12:12;6.73;;;3.80;;
24206;SDS011;12351;52.284;9.160;2023-07-02T14:14:59;8.60;;;4.03;;
24206;SDS011;12351;52.284;9.160;2023-07-02T14:17:46;11.33;;;4.07;;
24206;SDS011;12351;52.284;9.160;2023-07-02T14:20:34;6.47;;;3.80;;
24206;SDS011;12351;52.284;9.160;2023-07-02T14:23:21;7.67;;;3.87;;
24206;SDS011;12351;52.284;9.160;2023-07-02T14:26:07;6.20;;;3.70;;
24206;SDS011;12351;52.284;9.160;2023-07-02T14:28:55;6.57;;;3.53;;
24206;SDS011;12351;52.284;9.160;2023-07-02T14:31:43;6.70;;;3.00;;
24206;SDS011;12351;52.284;9.160;2023-07-02T14:34:30;6.93;;;3.40;;
24206;SDS011;12351;52.284;9.160;2023-07-02T14:37:17;7.00;;;3.50;;
24206;SDS011;12351;52.284;9.160;2023-07-02T14:40:04;6.43;;;3.47;;
24206;SDS011;12351;52.284;9.160;2023-07-02T14:42:51;5.00;;;3.20;;
24206;SDS011;12351;52.284;9.160;2023-07-02T14:48:28;6.53;;;3.30;;
24206;SDS011;12351;52.284;9.160;2023-07-02T14:51:15;7.80;;;3.37;;
24206;SDS011;12351;52.284;9.160;2023-07-02T14:54:02;7.87;;;3.23;;
24206;SDS011;12351;52.284;9.160;2023-07-02T14:56:50;6.03;;;3.40;;
24206;SDS011;12351;52.284;9.160;2023-07-02T14:59:37;7.27;;;3.60;;
24206;SDS011;12351;52.284;9.160;2023-07-02T15:02:24;5.77;;;3.27;;
24206;SDS011;12351;52.284;9.160;2023-07-02T15:05:10;9.13;;;3.10;;
24206;SDS011;12351;52.284;9.160;2023-07-02T15:07:57;5.23;;;2.97;;
24206;SDS011;12351;52.284;9.160;2023-07-02T15:10:45;4.90;;;3.10;;
24206;SDS011;12351;52.284;9.160;2023-07-02T15:13:34;5.67;;;3.10;;
24206;SDS011;12351;52.284;9.160;2023-07-02T15:16:22;6.83;;;3.37;;
24206;SDS011;12351;52.284;9.160;2023-07-02T15:19:08;7.33;;;3.30;;
24206;SDS011;12351;52.284;9.160;2023-07-02T15:21:57;8.57;;;3.27;;
24206;SDS011;12351;52.284;9.160;2023-07-02T15:24:44;5.00;;;3.07;;
24206;SDS011;12351;52.284;9.160;2023-07-02T15:27:31;6.40;;;3.43;;
24206;SDS011;12351;52.284;9.160;2023-07-02T15:30:18;6.00;;;3.33;;
24206;SDS011;12351;52.284;9.160;2023-07-02T15:33:05;6.10;;;3.40;;
24206;SDS011;12351;52.284;9.160;2023-07-02T15:35:52;7.03;;;3.33;;
24206;SDS011;12351;52.284;9.160;2023-07-02T15:38:39;5.20;;;3.03;;
24206;SDS011;12351;52.284;9.160;2023-07-02T15:41:26;5.20;;;3.00;;
24206;SDS011;12351;52.284;9.160;2023-07-02T15:44:14;8.50;;;3.50;;
24206;SDS011;12351;52.284;9.160;2023-07-02T15:47:03;6.07;;;3.10;;
24206;SDS011;12351;52.284;9.160;2023-07-02T15:49:52;9.20;;;3.40;;
24206;SDS011;12351;52.284;9.160;2023-07-02T15:52:41;7.40;;;3.33;;
24206;SDS011;12351;52.284;9.160;2023-07-02T15:55:28;6.43;;;3.17;;
24206;SDS011;12351;52.284;9.160;2023-07-02T15:58:18;6.43;;;2.80;;
24206;SDS011;12351;52.284;9.160;2023-07-02T16:03:54;9.70;;;3.30;;
24206;SDS011;12351;52.284;9.160;2023-07-02T16:06:41;5.27;;;3.47;;
24206;SDS011;12351;52.284;9.160;2023-07-02T16:09:29;6.87;;;3.47;;
24206;SDS011;12351;52.284;9.160;2023-07-02T16:12:15;8.80;;;3.67;;
24206;SDS011;12351;52.284;9.160;2023-07-02T16:15:02;7.47;;;3.20;;
24206;SDS011;12351;52.284;9.160;2023-07-02T16:17:49;6.07;;;3.30;;
24206;SDS011;12351;52.284;9.160;2023-07-02T16:20:36;7.50;;;3.27;;
24206;SDS011;12351;52.284;9.160;2023-07-02T16:23:24;7.20;;;3.73;;
24206;SDS011;12351;52.284;9.160;2023-07-02T16:26:10;6.63;;;3.10;;
24206;SDS011;12351;52.284;9.160;2023-07-02T16:28:57;8.83;;;4.73;;
24206;SDS011;12351;52.284;9.160;2023-07-02T16:31:46;8.50;;;3.80;;
24206;SDS011;12351;52.284;9.160;2023-07-02T16:34:34;5.23;;;3.23;;
24206;SDS011;12351;52.284;9.160;2023-07-02T16:37:20;9.20;;;3.07;;
24206;SDS011;12351;52.284;9.160;2023-07-02T16:40:07;6.40;;;3.47;;
24206;SDS011;12351;52.284;9.160;2023-07-02T16:42:55;8.90;;;5.80;;
24206;SDS011;12351;52.284;9.160;2023-07-02T16:45:42;5.40;;;3.50;;
24206;SDS011;12351;52.284;9.160;2023-07-02T16:48:30;5.33;;;3.07;;
24206;SDS011;12351;52.284;9.160;2023-07-02T16:51:17;7.73;;;2.90;;
24206;SDS011;12351;52.284;9.160;2023-07-02T16:54:05;5.40;;;3.40;;
24206;SDS011;12351;52.284;9.160;2023-07-02T16:56:56;19.37;;;13.73;;
24206;SDS011;12351;52.284;9.160;2023-07-02T16:59:43;6.03;;;3.73;;
24206;SDS011;12351;52.284;9.160;2023-07-02T17:02:30;11.60;;;7.27;;
24206;SDS011;12351;52.284;9.160;2023-07-02T17:05:17;4.60;;;3.27;;
24206;SDS011;12351;52.284;9.160;2023-07-02T17:08:04;5.37;;;3.33;;
24206;SDS011;12351;52.284;9.160;2023-07-02T17:10:51;5.33;;;3.53;;
24206;SDS011;12351;52.284;9.160;2023-07-02T17:13:38;7.83;;;3.33;;